createdAt,value
2017-08-29T00:00:58.894Z,99.99
2017-08-29T00:02:11.610Z,99.99
2017-08-29T00:03:24.807Z,99.99
2017-08-29T00:04:37.508Z,99.99
2017-08-29T00:05:50.665Z,99.99
2017-08-29T00:07:03.854Z,99.99
2017-08-29T00:08:17.005Z,99.99
2017-08-29T00:09:30.221Z,99.99
2017-08-29T00:10:42.868Z,99.99
2017-08-29T00:11:56.055Z,99.99
2017-08-29T00:13:08.704Z,99.99
2017-08-29T00:14:21.368Z,99.99
2017-08-29T00:15:34.554Z,99.99
2017-08-29T00:16:47.746Z,99.99
2017-08-29T00:18:00.448Z,99.99
2017-08-29T00:19:13.121Z,99.99
2017-08-29T00:20:25.808Z,99.99
2017-08-29T00:21:37.984Z,99.99
2017-08-29T00:22:50.725Z,99.99
2017-08-29T00:24:03.414Z,99.99
2017-08-29T00:25:15.581Z,99.99
2017-08-29T00:26:28.717Z,99.99
2017-08-29T00:27:41.900Z,99.99
2017-08-29T00:28:55.101Z,99.99
2017-08-29T00:30:08.320Z,99.99
2017-08-29T00:31:20.978Z,99.99
2017-08-29T00:32:33.162Z,99.99
2017-08-29T00:33:46.411Z,99.99
2017-08-29T00:34:59.590Z,99.99
2017-08-29T00:36:12.805Z,99.99
2017-08-29T00:37:26.021Z,99.99
2017-08-29T00:38:39.206Z,99.99
2017-08-29T00:39:52.383Z,99.99
2017-08-29T00:41:05.073Z,99.99
2017-08-29T00:42:17.756Z,99.99
2017-08-29T00:43:30.942Z,99.99
2017-08-29T00:44:43.589Z,99.99
2017-08-29T00:45:56.817Z,99.99
2017-08-29T00:47:09.003Z,99.99
2017-08-29T00:48:21.706Z,99.99
2017-08-29T00:49:34.403Z,99.99
2017-08-29T00:50:47.036Z,99.99
2017-08-29T00:52:00.251Z,99.99
2017-08-29T00:53:12.011Z,99.99
2017-08-29T00:54:24.674Z,99.99
2017-08-29T00:55:37.897Z,99.99
2017-08-29T00:56:50.571Z,99.99
2017-08-29T00:58:02.707Z,99.99
2017-08-29T00:59:15.885Z,99.99
2017-08-29T01:00:28.583Z,99.99
2017-08-29T01:01:41.805Z,99.99
2017-08-29T01:02:55.017Z,99.99
2017-08-29T01:04:07.708Z,99.99
2017-08-29T01:05:20.928Z,99.99
2017-08-29T01:06:33.589Z,99.99
2017-08-29T01:07:46.272Z,99.99
2017-08-29T01:08:59.475Z,99.99
2017-08-29T01:10:12.648Z,99.99
2017-08-29T01:11:24.837Z,99.99
2017-08-29T01:12:37.499Z,99.99
2017-08-29T01:13:49.688Z,99.99
2017-08-29T01:15:02.359Z,99.99
2017-08-29T01:16:15.018Z,99.99
2017-08-29T01:17:28.211Z,99.99
2017-08-29T01:18:42.000Z,99.99
2017-08-29T01:19:55.201Z,99.99
2017-08-29T01:21:08.415Z,99.99
2017-08-29T01:22:21.570Z,99.99
2017-08-29T01:23:34.783Z,99.99
2017-08-29T01:24:47.480Z,99.99
2017-08-29T01:26:00.153Z,99.99
2017-08-29T01:27:13.360Z,99.99
2017-08-29T01:28:25.516Z,99.99
2017-08-29T01:29:38.214Z,99.99
2017-08-29T01:30:51.405Z,99.99
2017-08-29T01:32:04.068Z,99.99
2017-08-29T01:33:16.762Z,99.99
2017-08-29T01:34:30.013Z,99.99
2017-08-29T01:35:43.211Z,99.99
2017-08-29T01:36:56.399Z,99.99
2017-08-29T01:38:09.589Z,99.99
2017-08-29T01:39:22.805Z,99.99
2017-08-29T01:40:36.016Z,99.99
2017-08-29T01:41:48.190Z,99.99
2017-08-29T01:43:01.369Z,99.99
2017-08-29T01:44:12.492Z,99.99
2017-08-29T01:45:25.185Z,99.99
2017-08-29T01:46:37.855Z,99.99
2017-08-29T01:47:50.513Z,99.99
2017-08-29T01:49:03.187Z,99.99
2017-08-29T01:50:16.348Z,99.99
2017-08-29T01:51:28.501Z,99.99
2017-08-29T01:52:41.139Z,99.99
2017-08-29T01:53:53.809Z,99.99
2017-08-29T01:55:06.469Z,99.99
2017-08-29T01:56:18.090Z,99.99
2017-08-29T01:57:30.742Z,99.99
2017-08-29T01:58:43.963Z,99.99
2017-08-29T01:59:57.150Z,99.99
2017-08-29T02:01:09.814Z,99.99
2017-08-29T02:02:22.483Z,99.99
2017-08-29T02:03:35.656Z,99.99
2017-08-29T02:04:47.821Z,99.99
2017-08-29T02:06:01.057Z,99.99
2017-08-29T02:07:14.266Z,99.99
2017-08-29T02:08:26.907Z,99.99
2017-08-29T02:09:39.584Z,99.99
2017-08-29T02:10:52.772Z,99.99
2017-08-29T02:12:05.473Z,99.99
2017-08-29T02:13:18.122Z,99.99
2017-08-29T02:14:31.299Z,99.99
2017-08-29T02:15:43.960Z,99.99
2017-08-29T02:16:57.176Z,99.99
2017-08-29T02:18:10.372Z,99.99
2017-08-29T02:19:23.056Z,99.99
2017-08-29T02:20:35.728Z,99.99
2017-08-29T02:21:48.388Z,99.99
2017-08-29T02:23:01.580Z,99.99
2017-08-29T02:24:14.276Z,99.99
2017-08-29T02:25:27.453Z,99.99
2017-08-29T02:26:40.658Z,99.99
2017-08-29T02:27:53.870Z,99.99
2017-08-29T02:29:07.043Z,99.99
2017-08-29T02:30:20.244Z,99.99
2017-08-29T02:31:32.413Z,99.99
2017-08-29T02:32:45.602Z,99.99
2017-08-29T02:33:58.369Z,99.99
2017-08-29T02:35:10.492Z,99.99
2017-08-29T02:36:23.705Z,99.99
2017-08-29T02:37:36.867Z,99.99
2017-08-29T02:38:50.081Z,99.99
2017-08-29T02:40:03.265Z,99.99
2017-08-29T02:41:15.376Z,99.99
2017-08-29T02:42:27.497Z,99.99
2017-08-29T02:43:40.171Z,99.99
2017-08-29T02:44:53.346Z,99.99
2017-08-29T02:46:06.046Z,99.99
2017-08-29T02:47:19.283Z,99.99
2017-08-29T02:48:32.004Z,99.99
2017-08-29T02:49:45.232Z,99.99
2017-08-29T02:50:58.429Z,99.99
2017-08-29T02:52:11.144Z,99.99
2017-08-29T02:53:24.302Z,99.99
2017-08-29T02:54:37.543Z,99.99
2017-08-29T02:55:50.220Z,99.99
2017-08-29T02:57:02.942Z,99.99
2017-08-29T02:58:15.638Z,99.99
2017-08-29T02:59:28.303Z,99.99
2017-08-29T03:00:41.006Z,99.99
2017-08-29T03:01:54.185Z,99.99
2017-08-29T03:03:06.853Z,99.99
2017-08-29T03:04:19.501Z,99.99
2017-08-29T03:05:32.738Z,99.99
2017-08-29T03:06:45.967Z,99.99
2017-08-29T03:07:58.159Z,99.99
2017-08-29T03:09:10.837Z,99.99
2017-08-29T03:10:23.499Z,99.99
2017-08-29T03:11:36.689Z,99.99
2017-08-29T03:12:49.904Z,99.99
2017-08-29T03:14:03.089Z,99.99
2017-08-29T03:15:15.780Z,99.99
2017-08-29T03:16:28.436Z,99.99
2017-08-29T03:17:41.145Z,99.99
2017-08-29T03:18:54.330Z,99.99
2017-08-29T03:20:07.581Z,99.99
2017-08-29T03:21:20.801Z,99.99
2017-08-29T03:22:33.434Z,99.99
2017-08-29T03:23:46.106Z,99.99
2017-08-29T03:24:58.784Z,99.99
2017-08-29T03:26:10.934Z,99.99
2017-08-29T03:27:23.619Z,99.99
2017-08-29T03:28:36.844Z,99.99
2017-08-29T03:29:49.535Z,99.99
2017-08-29T03:31:02.759Z,99.99
2017-08-29T03:32:15.410Z,99.99
2017-08-29T03:33:28.614Z,99.99
2017-08-29T03:34:41.340Z,99.99
2017-08-29T03:35:54.015Z,99.99
2017-08-29T03:37:05.143Z,99.99
2017-08-29T03:38:17.830Z,99.99
2017-08-29T03:39:29.992Z,99.99
2017-08-29T03:40:43.208Z,99.99
2017-08-29T03:41:56.414Z,99.99
2017-08-29T03:43:09.098Z,99.99
2017-08-29T03:44:22.314Z,99.99
2017-08-29T03:45:35.006Z,99.99
2017-08-29T03:46:48.227Z,99.99
2017-08-29T03:48:00.906Z,99.99
2017-08-29T03:49:14.098Z,99.99
2017-08-29T03:50:27.252Z,99.99
2017-08-29T03:51:39.954Z,99.99
2017-08-29T03:52:52.640Z,99.99
2017-08-29T03:54:05.833Z,99.99
2017-08-29T03:55:18.473Z,99.99
2017-08-29T03:56:31.600Z,99.99
2017-08-29T03:57:44.766Z,99.99
2017-08-29T03:58:57.940Z,99.99
2017-08-29T04:00:10.129Z,99.99
2017-08-29T04:01:22.799Z,99.99
2017-08-29T04:02:34.955Z,99.99
2017-08-29T04:03:46.584Z,99.99
2017-08-29T04:04:59.815Z,99.99
2017-08-29T04:06:11.429Z,99.99
2017-08-29T04:07:24.623Z,99.99
2017-08-29T04:08:37.808Z,99.99
2017-08-29T04:09:51.018Z,99.99
2017-08-29T04:11:04.236Z,99.99
2017-08-29T04:12:16.999Z,99.99
2017-08-29T04:13:29.150Z,99.99
2017-08-29T04:14:41.821Z,99.99
2017-08-29T04:15:55.089Z,99.99
2017-08-29T04:17:08.247Z,99.99
2017-08-29T04:18:20.399Z,99.99
2017-08-29T04:19:33.605Z,99.99
2017-08-29T04:20:46.268Z,99.99
2017-08-29T04:21:59.427Z,99.99
2017-08-29T04:23:12.633Z,99.99
2017-08-29T04:24:25.893Z,99.99
2017-08-29T04:25:39.114Z,99.99
2017-08-29T04:26:51.303Z,99.99
2017-08-29T04:28:04.470Z,99.99
2017-08-29T04:29:17.663Z,99.99
2017-08-29T04:30:30.359Z,99.99
2017-08-29T04:31:43.046Z,99.99
2017-08-29T04:32:56.248Z,99.99
2017-08-29T04:34:08.912Z,99.99
2017-08-29T04:35:22.113Z,99.99
2017-08-29T04:36:35.308Z,99.99
2017-08-29T04:37:48.501Z,99.99
2017-08-29T04:39:01.707Z,99.99
2017-08-29T04:40:14.882Z,99.99
2017-08-29T04:41:27.551Z,99.99
2017-08-29T04:42:40.746Z,99.99
2017-08-29T04:43:53.421Z,99.99
2017-08-29T04:45:06.632Z,99.99
2017-08-29T04:46:19.807Z,99.99
2017-08-29T04:47:33.001Z,99.99
2017-08-29T04:48:45.695Z,99.99
2017-08-29T04:49:58.378Z,99.99
2017-08-29T04:51:11.066Z,99.99
2017-08-29T04:52:24.249Z,99.99
2017-08-29T04:53:37.446Z,99.99
2017-08-29T04:54:50.168Z,99.99
2017-08-29T04:56:03.354Z,99.99
2017-08-29T04:57:16.530Z,99.99
2017-08-29T04:58:28.715Z,99.99
2017-08-29T04:59:41.381Z,99.99
2017-08-29T05:00:54.558Z,99.99
2017-08-29T05:02:07.731Z,99.99
2017-08-29T05:03:19.899Z,99.99
2017-08-29T05:04:33.081Z,99.99
2017-08-29T05:05:46.237Z,99.99
2017-08-29T05:38:02.101Z,99.99
2017-08-29T05:39:15.333Z,99.99
2017-08-29T05:40:28.034Z,99.99
2017-08-29T05:41:41.240Z,99.99
2017-08-29T05:42:54.425Z,99.99
2017-08-29T05:44:07.633Z,99.99
2017-08-29T05:45:20.793Z,99.99
2017-08-29T05:46:33.976Z,99.99
2017-08-29T05:47:47.196Z,99.99
2017-08-29T05:48:59.859Z,99.99
2017-08-29T05:50:13.084Z,99.99
2017-08-29T05:51:26.304Z,99.99
2017-08-29T05:52:39.474Z,99.99
2017-08-29T05:53:52.671Z,99.99
2017-08-29T05:55:05.348Z,99.99
2017-08-29T05:56:17.495Z,99.99
2017-08-29T05:57:30.699Z,99.99
2017-08-29T05:58:43.876Z,99.99
2017-08-29T05:59:57.082Z,99.99
2017-08-29T06:01:10.261Z,99.99
2017-08-29T06:02:23.451Z,99.99
2017-08-29T06:03:36.655Z,99.99
2017-08-29T06:04:49.371Z,99.99
2017-08-29T06:06:02.033Z,99.99
2017-08-29T06:07:15.187Z,99.99
2017-08-29T06:08:28.378Z,99.99
2017-08-29T06:09:41.602Z,99.99
2017-08-29T06:10:54.793Z,99.99
2017-08-29T06:12:07.497Z,99.99
2017-08-29T06:13:19.658Z,99.99
2017-08-29T06:14:32.867Z,99.99
2017-08-29T06:15:46.001Z,99.99
2017-08-29T06:16:59.180Z,99.99
2017-08-29T06:18:12.328Z,99.99
2017-08-29T06:19:24.990Z,99.99
2017-08-29T06:20:38.175Z,99.99
2017-08-29T06:21:50.353Z,99.99
2017-08-29T06:23:03.523Z,99.99
2017-08-29T06:24:16.205Z,99.99
2017-08-29T06:25:29.357Z,99.99
2017-08-29T06:26:42.564Z,99.99
2017-08-29T06:27:55.223Z,99.99
2017-08-29T06:29:08.415Z,99.99
2017-08-29T06:30:20.592Z,99.99
2017-08-29T06:31:33.279Z,99.99
2017-08-29T06:32:46.466Z,99.99
2017-08-29T06:33:59.670Z,99.99
2017-08-29T06:35:11.854Z,99.99
2017-08-29T06:36:24.529Z,99.99
2017-08-29T06:37:37.724Z,99.99
2017-08-29T06:38:50.923Z,99.99
2017-08-29T06:40:03.098Z,99.99
2017-08-29T06:41:15.813Z,99.99
2017-08-29T06:42:29.010Z,99.99
2017-08-29T06:43:42.203Z,99.99
2017-08-29T06:44:54.864Z,99.99
2017-08-29T06:46:08.056Z,99.99
2017-08-29T06:47:21.238Z,99.99
2017-08-29T06:48:34.395Z,99.99
2017-08-29T06:49:46.536Z,99.99
2017-08-29T06:50:59.743Z,99.99
2017-08-29T06:52:12.401Z,99.99
2017-08-29T06:53:25.592Z,99.99
2017-08-29T06:54:38.817Z,99.99
2017-08-29T06:55:51.466Z,99.99
2017-08-29T06:57:04.621Z,99.99
2017-08-29T06:58:17.995Z,99.99
2017-08-29T06:59:31.210Z,99.99
2017-08-29T07:00:44.404Z,99.99
2017-08-29T07:01:57.085Z,99.99
2017-08-29T07:03:09.780Z,99.99
2017-08-29T07:04:22.988Z,99.99
2017-08-29T07:05:35.668Z,99.99
2017-08-29T07:06:48.335Z,99.99
2017-08-29T07:08:00.996Z,99.99
2017-08-29T07:09:14.176Z,99.99
2017-08-29T07:10:26.833Z,99.99
2017-08-29T07:11:40.043Z,99.99
2017-08-29T07:12:52.709Z,99.99
2017-08-29T07:14:04.873Z,99.99
2017-08-29T07:15:17.060Z,99.99
2017-08-29T07:16:29.852Z,99.99
2017-08-29T07:17:42.523Z,99.99
2017-08-29T07:18:55.725Z,99.99
2017-08-29T07:20:08.936Z,99.99
2017-08-29T07:21:21.106Z,99.99
2017-08-29T07:22:34.278Z,99.99
2017-08-29T07:23:46.934Z,99.99
2017-08-29T07:25:00.119Z,99.99
2017-08-29T07:26:12.777Z,99.99
2017-08-29T07:27:25.454Z,99.99
2017-08-29T07:28:38.631Z,99.99
2017-08-29T07:29:51.819Z,99.99
2017-08-29T07:31:05.034Z,99.99
2017-08-29T07:32:18.212Z,99.99
2017-08-29T07:33:31.377Z,99.99
2017-08-29T07:34:44.565Z,99.99
2017-08-29T07:35:57.768Z,99.99
2017-08-29T07:37:10.441Z,99.99
2017-08-29T07:38:23.565Z,99.99
2017-08-29T07:39:36.261Z,99.99
2017-08-29T07:40:49.422Z,99.99
2017-08-29T07:42:02.550Z,99.99
2017-08-29T07:43:15.245Z,99.99
2017-08-29T07:44:27.925Z,99.99
2017-08-29T07:45:41.089Z,99.99
2017-08-29T07:46:54.250Z,99.99
2017-08-29T07:48:06.917Z,99.99
2017-08-29T07:49:20.093Z,99.99
2017-08-29T07:50:33.262Z,99.99
2017-08-29T07:51:45.986Z,99.99
2017-08-29T07:52:58.143Z,99.99
2017-08-29T07:54:10.827Z,99.99
2017-08-29T07:55:23.485Z,99.99
2017-08-29T07:56:36.662Z,99.99
2017-08-29T07:57:49.892Z,99.99
2017-08-29T07:59:03.102Z,99.99
2017-08-29T08:00:15.280Z,99.99
2017-08-29T08:01:28.485Z,99.99
2017-08-29T08:02:41.169Z,99.99
2017-08-29T08:03:54.373Z,99.99
2017-08-29T08:05:07.029Z,99.99
2017-08-29T08:06:20.243Z,99.99
2017-08-29T08:07:33.436Z,99.99
2017-08-29T08:08:46.647Z,99.99
2017-08-29T08:09:59.866Z,99.99
2017-08-29T08:11:13.097Z,99.99
2017-08-29T08:12:26.265Z,99.99
2017-08-29T08:13:39.460Z,99.99
2017-08-29T08:14:52.657Z,99.99
2017-08-29T08:16:05.877Z,99.99
2017-08-29T08:17:18.040Z,99.99
2017-08-29T08:18:31.236Z,99.99
2017-08-29T08:19:44.433Z,99.99
2017-08-29T08:20:56.558Z,99.99
2017-08-29T08:22:09.769Z,99.99
2017-08-29T08:23:22.437Z,99.99
2017-08-29T08:24:35.624Z,99.99
2017-08-29T08:25:48.249Z,99.99
2017-08-29T08:27:01.418Z,99.99
2017-08-29T08:28:14.570Z,99.99
2017-08-29T08:29:27.251Z,99.99
2017-08-29T08:30:40.493Z,99.99
2017-08-29T08:31:53.159Z,99.99
2017-08-29T08:33:05.851Z,99.99
2017-08-29T08:34:19.006Z,99.99
2017-08-29T08:35:31.696Z,99.99
2017-08-29T08:36:43.838Z,99.99
2017-08-29T08:37:57.018Z,99.99
2017-08-29T08:39:10.205Z,99.99
2017-08-29T08:40:23.380Z,99.99
2017-08-29T08:41:36.566Z,99.99
2017-08-29T08:42:49.754Z,99.99
2017-08-29T08:44:02.422Z,99.99
2017-08-29T08:45:15.115Z,99.99
2017-08-29T08:46:28.281Z,99.99
2017-08-29T08:47:40.467Z,99.99
2017-08-29T08:48:53.159Z,99.99
2017-08-29T08:50:05.312Z,99.99
2017-08-29T08:51:17.993Z,99.99
2017-08-29T08:52:31.181Z,99.99
2017-08-29T08:53:43.815Z,99.99
2017-08-29T08:54:56.505Z,99.99
2017-08-29T08:56:09.167Z,99.99
2017-08-29T08:57:21.329Z,99.99
2017-08-29T08:58:34.471Z,99.99
2017-08-29T08:59:47.139Z,99.99
2017-08-29T09:00:59.814Z,99.99
2017-08-29T09:02:12.990Z,99.99
2017-08-29T09:03:25.651Z,99.99
2017-08-29T09:04:38.357Z,99.99
2017-08-29T09:05:51.567Z,99.99
2017-08-29T09:07:04.795Z,99.99
2017-08-29T09:08:17.994Z,99.99
2017-08-29T09:09:31.234Z,99.99
2017-08-29T09:10:43.894Z,99.99
2017-08-29T09:11:56.551Z,99.99
2017-08-29T09:13:09.786Z,99.99
2017-08-29T09:14:22.987Z,99.99
2017-08-29T09:15:36.183Z,99.99
2017-08-29T09:16:49.391Z,99.99
2017-08-29T09:18:02.056Z,99.99
2017-08-29T09:19:14.208Z,99.99
2017-08-29T09:20:27.423Z,99.99
2017-08-29T09:21:40.610Z,99.99
2017-08-29T09:22:53.306Z,99.99
2017-08-29T09:24:06.519Z,99.99
2017-08-29T09:25:19.704Z,99.99
2017-08-29T09:26:31.833Z,99.99
2017-08-29T09:27:45.012Z,99.99
2017-08-29T09:29:29.410Z,99.99
2017-08-29T09:30:42.582Z,99.99
2017-08-29T09:31:55.232Z,99.99
2017-08-29T09:33:08.415Z,99.99
2017-08-29T09:34:21.111Z,99.99
2017-08-29T09:35:34.326Z,99.99
2017-08-29T09:36:47.015Z,99.99
2017-08-29T09:38:00.169Z,99.99
2017-08-29T09:39:12.878Z,99.99
2017-08-29T09:40:25.572Z,99.99
2017-08-29T09:41:38.828Z,99.99
2017-08-29T09:42:50.993Z,99.99
2017-08-29T09:44:03.695Z,99.99
2017-08-29T09:45:16.391Z,99.99
2017-08-29T09:46:29.538Z,99.99
2017-08-29T09:47:42.708Z,99.99
2017-08-29T09:48:54.868Z,99.99
2017-08-29T09:50:08.080Z,99.99
2017-08-29T09:51:21.241Z,99.99
2017-08-29T09:52:33.923Z,99.99
2017-08-29T09:53:47.113Z,99.99
2017-08-29T09:54:59.265Z,99.99
2017-08-29T09:56:12.490Z,99.99
2017-08-29T09:57:25.158Z,99.99
2017-08-29T09:58:37.874Z,99.99
2017-08-29T09:59:50.000Z,99.99
2017-08-29T10:01:02.679Z,99.99
2017-08-29T10:02:15.330Z,99.99
2017-08-29T10:03:28.533Z,99.99
2017-08-29T10:04:41.147Z,99.99
2017-08-29T10:05:54.372Z,99.99
2017-08-29T10:07:07.524Z,99.99
2017-08-29T10:08:20.210Z,99.99
2017-08-29T10:09:33.393Z,99.99
2017-08-29T10:10:46.061Z,99.99
2017-08-29T10:11:59.264Z,99.99
2017-08-29T10:13:11.942Z,99.99
2017-08-29T10:14:24.674Z,99.99
2017-08-29T10:15:37.921Z,99.99
2017-08-29T10:16:51.164Z,99.99
2017-08-29T10:18:04.410Z,99.99
2017-08-29T10:19:17.733Z,99.99
2017-08-29T10:21:02.124Z,99.99
2017-08-29T10:22:15.501Z,99.99
2017-08-29T10:23:28.889Z,99.99
2017-08-29T10:24:41.761Z,99.99
2017-08-29T10:25:55.496Z,99.99
2017-08-29T10:27:09.228Z,99.99
2017-08-29T10:28:22.115Z,99.99
2017-08-29T10:29:35.411Z,99.99
2017-08-29T10:30:48.644Z,99.99
2017-08-29T10:32:01.860Z,99.99
2017-08-29T10:33:15.090Z,99.99
2017-08-29T10:34:28.322Z,99.99
2017-08-29T10:35:41.529Z,99.99
2017-08-29T10:36:54.760Z,99.99
2017-08-29T10:38:07.465Z,99.99
2017-08-29T10:39:19.727Z,99.99
2017-08-29T10:40:32.425Z,99.87
2017-08-29T10:44:00.770Z,95.12
2017-08-29T10:45:14.033Z,94.93
2017-08-29T10:46:27.267Z,94.93
2017-08-29T10:47:40.522Z,94.4
2017-08-29T10:48:53.428Z,92.19
2017-08-29T10:50:07.066Z,90.8
2017-08-29T10:51:19.880Z,90.22
2017-08-29T10:52:33.104Z,90.42
2017-08-29T10:53:46.463Z,91.24
2017-08-29T10:54:59.375Z,90.9
2017-08-29T10:56:12.660Z,89.36
2017-08-29T10:57:26.104Z,89.07
2017-08-29T10:58:38.804Z,88.88
2017-08-29T10:59:52.145Z,90.22
2017-08-29T11:01:05.559Z,90.22
2017-08-29T11:02:19.154Z,90.22
2017-08-29T11:03:32.492Z,90.52
2017-08-29T11:04:46.119Z,91.38
2017-08-29T11:05:58.867Z,90.42
2017-08-29T11:07:12.391Z,89.36
2017-08-29T11:08:26.238Z,88.98
2017-08-29T11:09:39.237Z,88.21
2017-08-29T11:10:52.777Z,87.49
2017-08-29T11:12:05.556Z,86.81
2017-08-29T11:13:18.746Z,86.62
2017-08-29T11:14:31.146Z,87.01
2017-08-29T11:15:44.463Z,86.81
2017-08-29T11:16:57.419Z,85.61
2017-08-29T11:18:10.381Z,83.01
2017-08-29T11:19:24.042Z,82.57
2017-08-29T11:20:36.600Z,82.57
2017-08-29T11:21:49.607Z,81.46
2017-08-29T11:23:02.557Z,81.52
2017-08-29T11:24:15.657Z,80.69
2017-08-29T11:25:29.145Z,81.94
2017-08-29T11:26:40.827Z,83.06
2017-08-29T11:27:53.541Z,84.3
2017-08-29T11:29:06.780Z,86.18
2017-08-29T11:30:20.118Z,88.06
2017-08-29T11:31:33.392Z,88.54
2017-08-29T11:32:46.160Z,88.11
2017-08-29T11:33:59.315Z,87.92
2017-08-29T11:35:12.777Z,87.96
2017-08-29T11:36:24.568Z,90.03
2017-08-29T11:37:37.262Z,90.42
2017-08-29T11:38:49.472Z,91.33
2017-08-29T11:40:02.564Z,91.14
2017-08-29T11:41:15.764Z,92.29
2017-08-29T11:42:28.585Z,92
2017-08-29T11:43:41.431Z,91.81
2017-08-29T11:44:53.738Z,91.81
2017-08-29T11:46:06.440Z,90.42
2017-08-29T11:47:19.185Z,90.8
2017-08-29T11:48:32.429Z,90.08
2017-08-29T11:49:45.095Z,90.66
2017-08-29T11:50:58.483Z,89.7
2017-08-29T11:52:11.353Z,88.02
2017-08-29T11:53:24.619Z,89.07
2017-08-29T11:54:36.256Z,88.4
2017-08-29T11:55:48.999Z,87.19
2017-08-29T11:57:01.716Z,86.62
2017-08-29T11:58:14.424Z,86.72
2017-08-29T11:59:27.124Z,85.03
2017-08-29T12:00:39.902Z,85.51
2017-08-29T12:01:52.666Z,85.66
2017-08-29T12:03:06.025Z,87.68
2017-08-29T12:04:19.645Z,87.35
2017-08-29T12:05:32.384Z,87.1
2017-08-29T12:06:45.687Z,85.47
2017-08-29T12:07:58.915Z,86.91
2017-08-29T12:09:12.111Z,86.81
2017-08-29T12:10:25.294Z,87.49
2017-08-29T12:11:38.010Z,87.05
2017-08-29T12:12:50.853Z,87.82
2017-08-29T12:14:03.611Z,88.88
2017-08-29T12:15:16.424Z,88.49
2017-08-29T12:16:29.204Z,87.15
2017-08-29T12:17:41.917Z,87.87
2017-08-29T12:18:55.184Z,87.19
2017-08-29T12:20:08.304Z,88.69
2017-08-29T12:21:21.253Z,87.25
2017-08-29T12:22:34.106Z,87.44
2017-08-29T12:23:47.348Z,87.73
2017-08-29T12:25:00.539Z,87.25
2017-08-29T12:26:13.395Z,87.49
2017-08-29T12:27:26.198Z,84.55
2017-08-29T12:28:39.363Z,85.03
2017-08-29T12:29:52.092Z,85.22
2017-08-29T12:31:03.792Z,84.7
2017-08-29T12:32:16.487Z,84.99
2017-08-29T12:33:29.199Z,84.36
2017-08-29T12:34:41.370Z,84.74
2017-08-29T12:35:54.071Z,84.64
2017-08-29T12:37:06.858Z,82.92
2017-08-29T12:38:19.860Z,82.53
2017-08-29T12:39:32.465Z,82.63
2017-08-29T12:40:44.685Z,82.24
2017-08-29T12:41:57.474Z,82.15
2017-08-29T12:43:10.135Z,83.11
2017-08-29T12:44:22.324Z,83.36
2017-08-29T12:45:35.039Z,83.3
2017-08-29T12:46:46.700Z,82.82
2017-08-29T12:47:58.886Z,82.76
2017-08-29T12:49:11.622Z,80.84
2017-08-29T12:50:24.914Z,81.81
2017-08-29T12:51:38.241Z,82.34
2017-08-29T13:08:07.214Z,77.58
2017-08-29T13:09:19.916Z,76.82
2017-08-29T13:10:32.062Z,75.86
2017-08-29T13:11:43.718Z,76.98
2017-08-29T13:12:56.961Z,75.05
2017-08-29T13:14:10.206Z,74.32
2017-08-29T13:15:23.420Z,75.09
2017-08-29T13:16:36.607Z,76.73
2017-08-29T13:17:49.287Z,76.78
2017-08-29T13:19:02.526Z,76.88
2017-08-29T13:20:15.724Z,76.59
2017-08-29T13:21:27.907Z,76.5
2017-08-29T13:22:40.091Z,75.28
2017-08-29T13:23:52.322Z,75.86
2017-08-29T13:25:05.559Z,76.06
2017-08-29T13:26:18.261Z,76.01
2017-08-29T13:27:30.971Z,75.28
2017-08-29T13:28:44.179Z,75.57
2017-08-29T13:29:55.838Z,73.39
2017-08-29T13:31:07.495Z,72.47
2017-08-29T13:32:19.681Z,74.45
2017-08-29T13:33:32.828Z,74.61
2017-08-29T13:34:46.058Z,73.84
2017-08-29T13:35:59.303Z,74.32
2017-08-29T13:37:11.976Z,74.9
2017-08-29T13:38:24.681Z,74.41
2017-08-29T13:39:37.343Z,74.51
2017-08-29T13:40:50.540Z,75.92
2017-08-29T13:42:03.197Z,76.5
2017-08-29T13:43:14.856Z,74.57
2017-08-29T13:44:27.555Z,73.2
2017-08-29T13:45:40.754Z,72.91
2017-08-29T13:46:53.470Z,72.53
2017-08-29T13:48:06.185Z,73.39
2017-08-29T13:49:18.374Z,72.81
2017-08-29T13:50:30.536Z,72.72
2017-08-29T13:51:43.962Z,71.95
2017-08-29T13:52:57.725Z,71.31
2017-08-29T13:54:09.937Z,71.7
2017-08-29T13:55:23.225Z,72.33
2017-08-29T13:56:35.921Z,71.37
2017-08-29T13:57:48.607Z,71.66
2017-08-29T13:59:01.832Z,72.43
2017-08-29T14:00:14.054Z,72.24
2017-08-29T14:01:26.786Z,72.33
2017-08-29T14:02:38.966Z,71.95
2017-08-29T14:03:52.217Z,71.31
2017-08-29T14:05:04.904Z,71.47
2017-08-29T14:06:18.162Z,70.35
2017-08-29T14:07:30.853Z,69.32
2017-08-29T14:08:43.465Z,68.55
2017-08-29T14:09:56.773Z,68.49
2017-08-29T14:11:10.035Z,69.09
2017-08-29T14:12:22.190Z,69.38
2017-08-29T14:13:35.485Z,68.35
2017-08-29T14:14:48.212Z,68.55
2017-08-29T14:16:00.909Z,70.09
2017-08-29T14:17:13.064Z,68.07
2017-08-29T14:18:25.805Z,68.65
2017-08-29T14:19:38.398Z,68.23
2017-08-29T14:20:51.566Z,67.3
2017-08-29T14:22:04.313Z,67.04
2017-08-29T14:23:16.456Z,65.4
2017-08-29T14:24:29.674Z,64.18
2017-08-29T14:25:42.443Z,62.76
2017-08-29T14:26:54.608Z,61.05
2017-08-29T14:28:07.830Z,61.15
2017-08-29T14:29:20.531Z,61.27
2017-08-29T14:30:33.230Z,61.08
2017-08-29T14:31:45.962Z,61.66
2017-08-29T14:32:58.680Z,61.92
2017-08-29T14:34:11.399Z,61.92
2017-08-29T14:35:24.110Z,62.31
2017-08-29T14:36:36.260Z,62.12
2017-08-29T14:37:48.972Z,59.31
2017-08-29T14:39:01.672Z,59.34
2017-08-29T14:40:14.394Z,58.8
2017-08-29T14:41:26.052Z,58.95
2017-08-29T14:42:38.730Z,59.7
2017-08-29T14:43:51.428Z,59.99
2017-08-29T14:45:04.656Z,58.47
2017-08-29T14:46:17.348Z,58.02
2017-08-29T14:47:30.624Z,56.43
2017-08-29T14:48:42.806Z,58.37
2017-08-29T14:49:55.480Z,56.98
2017-08-29T14:51:08.183Z,54.98
2017-08-29T14:52:20.893Z,54.01
2017-08-29T14:53:34.695Z,52.78
2017-08-29T14:54:47.410Z,53.29
2017-08-29T14:56:00.617Z,53.29
2017-08-29T14:57:13.826Z,52.83
2017-08-29T14:58:27.028Z,52.34
2017-08-29T14:59:39.719Z,53.85
2017-08-29T15:00:52.406Z,53.45
2017-08-29T15:02:05.600Z,52.12
2017-08-29T15:03:16.755Z,51.28
2017-08-29T15:04:30.096Z,50.24
2017-08-29T15:05:42.286Z,50.43
2017-08-29T15:06:55.582Z,50.34
2017-08-29T15:08:09.422Z,51.57
2017-08-29T15:09:23.243Z,52.39
2017-08-29T15:10:36.547Z,53.36
2017-08-29T15:11:49.252Z,53.36
2017-08-29T15:13:01.955Z,51.9
2017-08-29T15:14:14.661Z,50.99
2017-08-29T15:15:27.897Z,51.54
2017-08-29T15:16:41.281Z,50.99
2017-08-29T15:17:54.535Z,50.96
2017-08-29T15:19:07.353Z,50.31
2017-08-29T15:20:21.146Z,48.78
2017-08-29T15:21:34.367Z,48.25
2017-08-29T15:22:46.056Z,47.3
2017-08-29T15:23:59.447Z,45.87
2017-08-29T15:25:12.162Z,46.35
2017-08-29T15:26:25.503Z,45.97
2017-08-29T15:27:38.701Z,45.5
2017-08-29T15:28:51.378Z,45.97
2017-08-29T15:30:04.600Z,46.15
2017-08-29T15:31:17.781Z,46.04
2017-08-29T15:32:30.987Z,45.62
2017-08-29T15:33:43.689Z,44.95
2017-08-29T15:34:57.014Z,43.8
2017-08-29T15:36:10.242Z,42.39
2017-08-29T15:37:22.905Z,41.16
2017-08-29T15:38:35.077Z,40.6
2017-08-29T15:39:48.121Z,40.21
2017-08-29T15:41:01.235Z,40.01
2017-08-29T15:42:15.032Z,40.89
2017-08-29T15:43:27.771Z,42.53
2017-08-29T15:44:40.988Z,41.14
2017-08-29T15:45:53.704Z,40.97
2017-08-29T15:47:06.411Z,39.9
2017-08-29T15:48:19.639Z,39.24
2017-08-29T15:49:31.809Z,39.82
2017-08-29T15:50:44.543Z,39.72
2017-08-29T15:51:57.229Z,40.23
2017-08-29T15:53:08.913Z,39.34
2017-08-29T15:54:22.117Z,39.62
2017-08-29T15:55:35.954Z,37.39
2017-08-29T15:56:48.621Z,37.41
2017-08-29T15:58:02.418Z,35.77
2017-08-29T15:59:15.147Z,35.12
2017-08-29T16:00:28.241Z,34.94
2017-08-29T16:01:40.411Z,34.67
2017-08-29T16:02:54.247Z,35.17
2017-08-29T16:04:06.922Z,35.45
2017-08-29T16:05:19.609Z,34.57
2017-08-29T16:06:32.818Z,35.27
2017-08-29T16:07:46.031Z,35.33
2017-08-29T16:08:58.715Z,35.24
2017-08-29T16:10:10.866Z,35.14
2017-08-29T16:11:23.069Z,35.06
2017-08-29T16:12:36.282Z,34.77
2017-08-29T16:13:49.460Z,34.57
2017-08-29T16:15:02.171Z,34
2017-08-29T16:16:14.949Z,33.7
2017-08-29T16:17:27.137Z,31.96
2017-08-29T16:18:40.373Z,31.51
2017-08-29T16:19:53.084Z,31.01
2017-08-29T16:21:05.803Z,31.7
2017-08-29T16:22:17.982Z,31.51
2017-08-29T16:23:30.680Z,31.41
2017-08-29T16:24:43.374Z,31.11
2017-08-29T16:25:55.532Z,30.74
2017-08-29T16:27:08.257Z,31.13
2017-08-29T16:28:20.446Z,31.41
2017-08-29T16:29:33.613Z,30.83